Time;durP1;ratioP1;P1;durP2;ratioP2;P2;SDS_P1;SDS_P2;PMS_P1;PMS_P2;Temp;Humidity;BMP_temperature;BMP_pressure;BME280_temperature;BME280_humidity;BME280_pressure;Samples;Min_cycle;Max_cycle;Signal;HPM_P1;HPM_P2
2022/12/05 00:01:34;;;;;;;34.58;15.20;;;;;;;7.15;100.00;99727.13;5084717;28;20097;-85
2022/12/05 00:04:03;;;;;;;33.47;15.52;;;;;;;7.17;100.00;99725.16;5081512;28;20045;-85
2022/12/05 00:06:29;;;;;;;38.13;16.30;;;;;;;7.15;100.00;99732.34;5085275;28;20493;-84
2022/12/05 00:08:56;;;;;;;38.47;16.02;;;;;;;6.98;100.00;99727.03;5065360;28;20028;-86
2022/12/05 00:11:26;;;;;;;37.80;17.05;;;;;;;7.21;100.00;99733.53;5088016;28;20020;-84
2022/12/05 00:13:54;;;;;;;38.72;15.32;;;;;;;7.18;100.00;99732.03;5084006;28;20036;-84
2022/12/05 00:16:24;;;;;;;35.88;16.70;;;;;;;7.24;100.00;99731.41;5087245;28;20038;-84
2022/12/05 00:18:50;;;;;;;38.10;16.77;;;;;;;7.25;100.00;99735.63;5091485;28;20038;-82
2022/12/05 00:21:18;;;;;;;38.28;15.98;;;;;;;7.28;100.00;99737.97;5084465;28;20044;-83
2022/12/05 00:23:44;;;;;;;38.10;14.77;;;;;;;7.39;100.00;99731.66;5085873;28;20150;-83
2022/12/05 00:26:11;;;;;;;37.22;15.98;;;;;;;6.97;100.00;99730.59;5084461;28;20020;-82
2022/12/05 00:28:37;;;;;;;39.33;16.10;;;;;;;7.14;100.00;99728.09;5078258;28;20028;-83
2022/12/05 00:31:08;;;;;;;41.20;16.77;;;;;;;7.14;100.00;99725.47;5092282;28;20390;-82
2022/12/05 00:33:34;;;;;;;44.22;17.05;;;;;;;7.27;100.00;99733.72;5089619;28;20031;-83
2022/12/05 00:36:10;;;;;;;36.58;15.82;;;;;;;7.06;100.00;99728.03;5086006;28;20043;-84
2022/12/05 00:38:36;;;;;;;42.15;16.25;;;;;;;7.26;100.00;99732.06;5091418;28;20085;-85
2022/12/05 00:41:04;;;;;;;33.72;17.02;;;;;;;7.17;100.00;99724.34;5073958;28;20059;-86
2022/12/05 00:43:29;;;;;;;39.35;16.15;;;;;;;7.02;100.00;99737.16;5084614;28;20040;-84
2022/12/05 00:45:55;;;;;;;36.22;15.20;;;;;;;7.21;100.00;99731.72;5081199;28;20029;-85
2022/12/05 00:48:20;;;;;;;29.15;15.25;;;;;;;7.01;100.00;99741.56;5083322;28;20152;-84
2022/12/05 00:50:46;;;;;;;37.10;14.55;;;;;;;7.11;100.00;99726.59;5080810;28;20382;-84
2022/12/05 00:53:12;;;;;;;30.65;15.45;;;;;;;7.26;100.00;99733.88;5085624;28;20071;-84
2022/12/05 00:55:37;;;;;;;35.72;15.68;;;;;;;7.36;100.00;99737.16;5080639;28;20381;-84
2022/12/05 00:58:03;;;;;;;36.53;14.90;;;;;;;7.43;100.00;99729.53;5065700;28;20056;-83
2022/12/05 01:00:29;;;;;;;30.92;14.55;;;;;;;7.42;100.00;99722.66;5066345;28;20164;-84
2022/12/05 01:02:57;;;;;;;34.28;15.02;;;;;;;7.53;100.00;99727.63;5081348;28;20444;-84
2022/12/05 01:05:27;;;;;;;32.53;15.18;;;;;;;7.27;100.00;99736.34;5062294;28;20070;-83
2022/12/05 01:07:57;;;;;;;33.83;15.77;;;;;;;7.33;100.00;99734.06;5081268;28;20099;-84
2022/12/05 01:10:25;;;;;;;40.08;15.93;;;;;;;7.37;100.00;99735.38;5079307;28;20044;-83
2022/12/05 01:12:52;;;;;;;31.92;13.73;;;;;;;7.16;100.00;99731.38;5085490;28;20028;-84
2022/12/05 01:15:18;;;;;;;34.08;12.95;;;;;;;7.17;100.00;99738.22;5078798;28;20029;-85
2022/12/05 01:17:44;;;;;;;32.78;13.10;;;;;;;7.11;100.00;99739.66;5060756;28;20489;-84
2022/12/05 01:20:11;;;;;;;38.20;14.40;;;;;;;7.18;100.00;99742.47;5061078;28;20032;-83
2022/12/05 01:22:39;;;;;;;35.20;15.43;;;;;;;7.23;100.00;99750.66;5076570;28;20028;-84
2022/12/05 01:25:05;;;;;;;35.70;14.15;;;;;;;7.11;100.00;99744.06;5082642;28;20059;-83
2022/12/05 01:27:31;;;;;;;37.15;15.02;;;;;;;7.33;100.00;99749.72;5066774;28;20052;-83
2022/12/05 01:29:58;;;;;;;36.42;14.85;;;;;;;7.38;100.00;99753.53;5066188;28;20028;-84
2022/12/05 01:32:23;;;;;;;34.28;13.15;;;;;;;7.44;100.00;99749.44;5057442;28;20059;-84
2022/12/05 01:34:49;;;;;;;30.63;13.77;;;;;;;7.41;100.00;99755.81;5081257;28;20024;-84
2022/12/05 01:37:15;;;;;;;35.50;13.40;;;;;;;7.19;100.00;99754.56;5059464;28;20024;-84
2022/12/05 01:39:40;;;;;;;34.65;12.38;;;;;;;7.06;100.00;99752.34;5059370;28;20028;-83
2022/12/05 01:42:06;;;;;;;44.22;15.10;;;;;;;7.26;100.00;99745.13;5079746;28;20155;-83
2022/12/05 01:44:32;;;;;;;30.02;13.70;;;;;;;7.36;100.00;99750.22;5091604;28;20410;-82
2022/12/05 01:46:58;;;;;;;29.25;12.98;;;;;;;7.15;100.00;99754.03;5071794;28;20054;-82
2022/12/05 01:49:37;;;;;;;32.65;12.95;;;;;;;7.34;100.00;99751.38;5090617;28;20111;-83
2022/12/05 01:52:06;;;;;;;35.28;12.25;;;;;;;7.34;100.00;99751.38;5072450;28;20077;-84
2022/12/05 01:54:35;;;;;;;23.23;10.95;;;;;;;7.46;100.00;99759.75;5072582;28;20012;-83
2022/12/05 01:57:05;;;;;;;24.60;11.13;;;;;;;7.36;100.00;99752.03;5090604;28;20446;-83
2022/12/05 01:59:34;;;;;;;25.88;10.50;;;;;;;7.18;100.00;99749.50;5089533;28;20042;-84
2022/12/05 02:02:00;;;;;;;25.90;10.55;;;;;;;7.09;100.00;99751.25;5089782;28;20047;-82
2022/12/05 02:04:27;;;;;;;27.92;11.32;;;;;;;7.11;100.00;99747.50;5072777;28;20024;-83
2022/12/05 02:06:53;;;;;;;26.77;10.45;;;;;;;7.07;100.00;99755.78;5073081;28;20038;-83
2022/12/05 02:09:21;;;;;;;21.60;9.63;;;;;;;7.25;100.00;99751.31;5071854;28;20084;-83
2022/12/05 02:11:53;;;;;;;23.55;10.55;;;;;;;7.25;100.00;99759.16;5054924;28;20485;-84
2022/12/05 02:14:36;;;;;;;24.02;10.10;;;;;;;7.30;100.00;99750.84;5090282;28;20036;-83
2022/12/05 02:17:15;;;;;;;21.40;9.43;;;;;;;7.39;100.00;99756.94;5090235;28;20441;-82
2022/12/05 02:20:03;;;;;;;23.60;9.90;;;;;;;7.26;100.00;99762.59;5070694;28;20031;-82
2022/12/05 02:22:50;;;;;;;22.05;8.80;;;;;;;7.15;100.00;99753.22;5090252;28;20428;-82
2022/12/05 02:25:15;;;;;;;20.70;8.57;;;;;;;7.16;100.00;99754.88;5089121;28;20059;-83
2022/12/05 02:27:50;;;;;;;19.95;8.98;;;;;;;7.18;100.00;99758.13;5088844;28;20113;-84
2022/12/05 02:30:22;;;;;;;21.33;8.85;;;;;;;7.04;100.00;99754.31;5089773;28;20028;-83
2022/12/05 02:33:03;;;;;;;27.45;10.63;;;;;;;6.98;100.00;99762.75;5092426;28;20032;-84
2022/12/05 02:35:51;;;;;;;23.65;9.43;;;;;;;7.13;100.00;99761.19;5075056;28;20045;-82
2022/12/05 02:38:16;;;;;;;28.10;9.95;;;;;;;6.90;100.00;99760.91;5074099;28;20027;-83
2022/12/05 02:40:51;;;;;;;28.40;10.40;;;;;;;7.06;100.00;99761.97;5058859;28;20517;-83
2022/12/05 02:43:46;;;;;;;24.30;9.75;;;;;;;7.18;100.00;99757.34;5059153;28;20075;-83
2022/12/05 02:46:19;;;;;;;20.42;8.82;;;;;;;7.03;100.00;99759.66;5086826;28;20079;-82
2022/12/05 02:48:48;;;;;;;26.73;9.27;;;;;;;7.13;100.00;99765.63;5094517;28;20486;-83
2022/12/05 02:51:18;;;;;;;27.73;9.68;;;;;;;7.15;100.00;99761.88;5059518;28;20066;-84
2022/12/05 02:53:46;;;;;;;24.67;9.98;;;;;;;6.93;100.00;99765.81;5092751;28;20028;-82
2022/12/05 02:56:11;;;;;;;22.60;9.18;;;;;;;6.95;100.00;99763.88;5093715;28;20028;-83
2022/12/05 02:58:47;;;;;;;31.02;9.73;;;;;;;6.95;100.00;99763.88;5094043;28;20078;-84
2022/12/05 03:01:14;;;;;;;29.92;9.90;;;;;;;6.69;100.00;99769.06;5075451;28;20035;-83
2022/12/05 03:03:40;;;;;;;22.10;9.48;;;;;;;6.63;100.00;99770.47;5093695;28;20461;-84
2022/12/05 03:06:13;;;;;;;22.08;9.07;;;;;;;6.65;100.00;99778.97;5094030;28;20036;-83
2022/12/05 03:08:48;;;;;;;21.33;8.95;;;;;;;6.63;100.00;99775.69;5075719;28;20028;-84
2022/12/05 03:11:14;;;;;;;24.85;9.32;;;;;;;6.70;100.00;99775.91;5074849;28;20114;-83
2022/12/05 03:14:01;;;;;;;20.33;7.75;;;;;;;6.57;100.00;99774.50;5094863;28;20034;-83
2022/12/05 03:16:40;;;;;;;20.45;8.60;;;;;;;6.63;100.00;99777.50;5094284;28;20024;-83
2022/12/05 03:19:13;;;;;;;25.98;8.80;;;;;;;6.48;100.00;99777.19;5074766;28;20038;-84
2022/12/05 03:21:46;;;;;;;20.65;8.00;;;;;;;6.59;100.00;99770.94;5065856;28;20035;-83
2022/12/05 03:24:14;;;;;;;16.80;7.57;;;;;;;6.68;100.00;99778.69;5093033;28;20043;-84
2022/12/05 03:27:18;;;;;;;21.08;7.40;;;;;;;6.81;100.00;99783.50;5093835;28;20028;-83
2022/12/05 03:30:15;;;;;;;19.42;7.85;;;;;;;6.70;100.00;99775.91;5073045;28;20062;-82
2022/12/05 03:32:44;;;;;;;21.48;7.78;;;;;;;6.66;100.00;99793.66;5073180;28;20131;-82
2022/12/05 03:35:24;;;;;;;23.55;7.10;;;;;;;6.49;100.00;99791.91;5075312;28;20036;-82
2022/12/05 03:37:59;;;;;;;20.33;7.60;;;;;;;6.74;100.00;99776.44;5092339;28;20046;-83
2022/12/05 03:40:36;;;;;;;20.05;6.80;;;;;;;6.48;100.00;99779.78;5091385;28;20032;-84
2022/12/05 03:43:25;;;;;;;19.23;7.28;;;;;;;6.52;100.00;99788.97;5092879;28;20051;-83
2022/12/05 03:46:06;;;;;;;21.42;6.30;;;;;;;6.60;100.00;99791.66;5054259;28;20043;-84
2022/12/05 03:48:39;;;;;;;18.40;6.88;;;;;;;6.65;100.00;99784.19;5091961;28;20028;-81
2022/12/05 03:51:07;;;;;;;20.33;7.22;;;;;;;6.51;100.00;99779.53;5091555;28;20495;-83
2022/12/05 03:53:59;;;;;;;17.13;6.60;;;;;;;6.48;100.00;99787.63;5092821;28;20454;-83
2022/12/05 03:56:39;;;;;;;15.88;7.25;;;;;;;6.41;100.00;99787.41;5080635;28;20039;-83
2022/12/05 03:59:18;;;;;;;16.05;5.18;;;;;;;6.48;100.00;99792.84;5092559;28;20028;-83
2022/12/05 04:01:45;;;;;;;15.07;5.75;;;;;;;6.49;100.00;99803.13;5091679;28;20028;-84
2022/12/05 04:04:20;;;;;;;21.33;6.07;;;;;;;6.52;100.00;99802.03;5092718;28;20111;-83
2022/12/05 04:06:52;;;;;;;15.95;6.20;;;;;;;6.33;100.00;99797.75;5074203;28;20482;-82
2022/12/05 04:09:23;;;;;;;18.30;5.43;;;;;;;6.33;100.00;99801.19;5093006;28;20032;-83
2022/12/05 04:11:59;;;;;;;15.10;6.10;;;;;;;6.28;100.00;99799.03;5092589;28;20062;-83
2022/12/05 04:14:39;;;;;;;13.75;5.32;;;;;;;6.21;100.00;99802.34;5092362;28;20061;-83
2022/12/05 04:17:56;;;;;;;18.08;6.10;;;;;;;6.27;100.00;99809.59;5092194;28;20032;-82
2022/12/05 04:23:26;;;;;;;10.32;4.80;;;;;;;6.36;100.00;99800.06;5092560;28;20020;-83
2022/12/05 04:26:05;;;;;;;18.27;6.07;;;;;;;6.34;100.00;99817.66;5059577;28;20497;-88
2022/12/05 04:28:48;;;;;;;21.45;6.75;;;;;;;6.20;100.00;99811.16;5073670;28;20035;-83
2022/12/05 04:31:22;;;;;;;24.58;7.72;;;;;;;6.22;100.00;99820.47;5091626;28;20031;-82
2022/12/05 04:34:02;;;;;;;17.58;5.97;;;;;;;6.26;100.00;99815.78;5073721;28;20035;-82
2022/12/05 04:36:31;;;;;;;16.77;6.07;;;;;;;6.25;100.00;99820.19;5090235;28;20019;-82
2022/12/05 04:39:08;;;;;;;14.85;5.05;;;;;;;6.28;100.00;99812.06;5092509;28;20050;-84
2022/12/05 04:41:41;;;;;;;17.02;5.10;;;;;;;6.41;100.00;99816.91;5090406;28;20028;-86
2022/12/05 04:44:11;;;;;;;14.80;6.50;;;;;;;6.35;100.00;99814.06;5091558;28;20558;-83
2022/12/05 04:46:40;;;;;;;13.45;5.20;;;;;;;6.31;100.00;99826.59;5091420;28;20394;-83
2022/12/05 04:49:09;;;;;;;19.25;5.80;;;;;;;6.49;100.00;99829.22;5072276;28;20469;-83
2022/12/05 04:51:37;;;;;;;14.95;6.03;;;;;;;6.45;100.00;99829.66;5091302;28;20111;-83
2022/12/05 04:54:22;;;;;;;15.68;5.55;;;;;;;6.35;100.00;99835.75;5092200;28;20051;-82
2022/12/05 04:56:53;;;;;;;15.48;5.03;;;;;;;6.41;100.00;99843.00;5072591;28;20070;-82
2022/12/05 04:59:18;;;;;;;12.57;5.57;;;;;;;6.37;100.00;99839.03;5073655;28;20028;-83
2022/12/05 05:01:52;;;;;;;13.63;5.88;;;;;;;6.32;100.00;99838.66;5092036;28;20397;-81
2022/12/05 05:04:29;;;;;;;16.65;5.88;;;;;;;6.30;100.00;99840.59;5092776;28;20470;-81
2022/12/05 05:06:55;;;;;;;23.90;6.90;;;;;;;6.28;100.00;99842.50;5089281;28;20073;-82
2022/12/05 05:09:21;;;;;;;15.35;6.40;;;;;;;6.28;100.00;99839.91;5091516;28;20024;-82
2022/12/05 05:11:47;;;;;;;12.55;6.30;;;;;;;6.34;100.00;99834.13;5091487;28;20052;-81
2022/12/05 05:14:12;;;;;;;18.58;5.90;;;;;;;6.55;100.00;99835.63;5090590;28;20043;-82
2022/12/05 05:16:40;;;;;;;22.27;6.00;;;;;;;6.79;100.00;99842.88;5090850;28;20572;-82
2022/12/05 05:19:07;;;;;;;15.25;5.72;;;;;;;6.50;100.00;99838.66;5073390;28;20032;-82
2022/12/05 05:21:39;;;;;;;20.75;5.47;;;;;;;6.38;100.00;99845.06;5090771;28;20031;-82
2022/12/05 05:24:05;;;;;;;13.77;4.85;;;;;;;6.57;100.00;99839.72;5091267;28;20035;-82
2022/12/05 05:26:34;;;;;;;16.85;5.70;;;;;;;6.65;100.00;99841.56;5090591;28;20024;-82
2022/12/05 05:29:00;;;;;;;12.13;4.70;;;;;;;6.40;100.00;99841.34;5091420;28;20101;-82
2022/12/05 05:31:26;;;;;;;17.13;5.90;;;;;;;6.64;100.00;99839.94;5072978;28;20016;-82
2022/12/05 05:33:53;;;;;;;16.40;5.20;;;;;;;6.42;100.00;99847.22;5090531;28;20534;-83
2022/12/05 05:36:21;;;;;;;16.13;5.30;;;;;;;6.61;100.00;99848.06;5090622;28;20478;-82
2022/12/05 05:38:49;;;;;;;9.48;4.60;;;;;;;6.62;100.00;99847.09;5072913;28;20039;-84
2022/12/05 05:41:16;;;;;;;15.00;5.13;;;;;;;6.63;100.00;99847.94;5073104;28;20024;-83
2022/12/05 05:43:43;;;;;;;16.30;4.43;;;;;;;6.66;100.00;99845.81;5070893;28;20353;-83
2022/12/05 05:46:10;;;;;;;11.55;4.22;;;;;;;6.50;100.00;99848.31;5070371;28;20028;-84
2022/12/05 05:48:36;;;;;;;19.27;5.28;;;;;;;6.85;100.00;99857.91;5070548;28;20058;-83
2022/12/05 05:51:04;;;;;;;14.00;5.68;;;;;;;6.78;100.00;99856.06;5070849;28;20055;-83
2022/12/05 05:53:30;;;;;;;11.00;4.78;;;;;;;6.61;100.00;99861.13;5070154;28;20062;-82
2022/12/05 05:55:56;;;;;;;16.15;4.85;;;;;;;6.54;100.00;99857.47;5052352;28;20034;-82
2022/12/05 05:58:22;;;;;;;16.15;4.30;;;;;;;6.65;100.00;99872.88;5070794;28;20029;-82
2022/12/05 06:00:48;;;;;;;13.00;4.63;;;;;;;6.77;100.00;99876.09;5052635;28;20067;-83
2022/12/05 06:03:13;;;;;;;11.43;5.20;;;;;;;6.60;100.00;99863.88;5069908;28;20471;-82
2022/12/05 06:05:41;;;;;;;15.43;5.03;;;;;;;6.83;100.00;99864.25;5051759;28;20033;-83
2022/12/05 06:08:10;;;;;;;14.98;4.70;;;;;;;6.80;100.00;99881.03;5053253;28;20032;-85
2022/12/05 06:10:37;;;;;;;15.20;5.53;;;;;;;6.83;100.00;99869.47;5035789;28;20020;-85
2022/12/05 06:13:03;;;;;;;11.13;4.65;;;;;;;6.63;100.00;99872.22;5052434;28;20071;-84
2022/12/05 06:15:29;;;;;;;17.27;4.78;;;;;;;6.81;100.00;99874.00;5070617;28;20478;-84
2022/12/05 06:17:55;;;;;;;16.65;4.78;;;;;;;6.61;100.00;99876.75;5070019;28;20123;-85
2022/12/05 06:20:21;;;;;;;15.05;4.40;;;;;;;6.72;100.00;99878.34;5070399;28;20467;-83
2022/12/05 06:22:46;;;;;;;17.45;4.57;;;;;;;6.74;100.00;99886.81;5055156;28;20060;-83
2022/12/05 06:25:12;;;;;;;14.02;5.60;;;;;;;6.91;100.00;99887.00;5035522;28;20044;-83
2022/12/05 06:27:37;;;;;;;12.02;4.00;;;;;;;6.98;100.00;99886.25;5070185;28;20029;-84
2022/12/05 06:30:04;;;;;;;12.20;4.35;;;;;;;6.92;100.00;99889.47;5052254;28;20364;-84
2022/12/05 06:32:30;;;;;;;11.50;5.30;;;;;;;6.90;100.00;99883.56;5084453;28;20078;-84
2022/12/05 06:34:55;;;;;;;23.30;5.15;;;;;;;6.88;100.00;99892.50;5052004;28;20021;-83
2022/12/05 06:37:21;;;;;;;15.38;5.28;;;;;;;6.84;100.00;99897.19;5070353;28;20111;-84
2022/12/05 06:39:46;;;;;;;14.20;5.07;;;;;;;6.88;100.00;99880.28;5052214;28;20051;-84
2022/12/05 06:42:12;;;;;;;12.40;5.65;;;;;;;6.76;100.00;99884.09;5076092;28;20101;-84
2022/12/05 06:44:39;;;;;;;13.77;5.20;;;;;;;6.85;100.00;99884.00;5072910;28;20035;-85
2022/12/05 06:47:04;;;;;;;13.18;5.10;;;;;;;6.81;100.00;99879.22;5089969;28;20465;-83
2022/12/05 06:49:32;;;;;;;16.15;5.70;;;;;;;6.63;100.00;99889.66;5072560;28;20089;-85
2022/12/05 06:51:58;;;;;;;18.08;5.13;;;;;;;6.55;100.00;99893.00;5090141;28;20056;-83
2022/12/05 06:54:24;;;;;;;15.40;4.85;;;;;;;6.49;100.00;99880.56;5090265;28;20055;-83
2022/12/05 06:56:50;;;;;;;13.85;5.15;;;;;;;6.52;100.00;99890.69;5105960;28;20063;-83
2022/12/05 06:59:15;;;;;;;14.98;5.25;;;;;;;6.54;100.00;99888.75;5072789;28;20486;-83
2022/12/05 07:01:41;;;;;;;14.43;4.93;;;;;;;6.54;100.00;99892.19;5090197;28;20035;-84
2022/12/05 07:04:15;;;;;;;19.77;7.47;;;;;;;6.79;100.00;99894.22;5071893;28;20550;-83
2022/12/05 07:06:43;;;;;;;13.80;5.53;;;;;;;6.89;100.00;99899.38;5072258;28;20477;-84
2022/12/05 07:09:12;;;;;;;12.82;5.72;;;;;;;6.64;100.00;99892.13;5089343;28;20113;-83
2022/12/05 07:11:37;;;;;;;14.10;4.82;;;;;;;6.49;100.00;99896.22;5090873;28;20094;-83
2022/12/05 07:14:04;;;;;;;12.73;5.72;;;;;;;6.66;100.00;99887.56;5072766;28;20450;-84
2022/12/05 07:16:30;;;;;;;16.02;5.57;;;;;;;6.74;100.00;99896.47;5089460;28;20496;-84
2022/12/05 07:18:56;;;;;;;12.93;4.68;;;;;;;6.69;100.00;99895.13;5072334;28;20024;-83
2022/12/05 07:21:22;;;;;;;12.35;4.80;;;;;;;6.61;100.00;99892.41;5093926;28;20381;-84
2022/12/05 07:23:49;;;;;;;16.67;5.85;;;;;;;6.80;100.00;99891.47;5093704;28;20073;-84
2022/12/05 07:26:18;;;;;;;15.00;4.82;;;;;;;6.71;100.00;99902.78;5090617;28;20027;-82
2022/12/05 07:28:45;;;;;;;9.70;4.60;;;;;;;6.83;100.00;99900.78;5093466;28;20051;-83
2022/12/05 07:31:15;;;;;;;16.35;5.78;;;;;;;6.76;100.00;99903.16;5075214;28;20378;-80
2022/12/05 07:33:40;;;;;;;17.92;5.57;;;;;;;6.70;100.00;99906.38;5092149;28;20081;-81
2022/12/05 07:36:19;;;;;;;14.10;5.88;;;;;;;6.67;100.00;99920.50;5075280;28;20120;-80
2022/12/05 07:38:45;;;;;;;13.00;5.10;;;;;;;6.56;100.00;99900.69;5073444;28;20028;-80
2022/12/05 07:41:19;;;;;;;17.98;6.10;;;;;;;6.65;100.00;99909.41;5095517;28;20090;-81
2022/12/05 07:43:45;;;;;;;14.65;6.85;;;;;;;6.65;100.00;99904.19;5094840;28;20051;-81
2022/12/05 07:46:10;;;;;;;13.13;5.63;;;;;;;6.68;100.00;99913.53;5092119;28;20028;-80
2022/12/05 07:48:36;;;;;;;18.48;7.10;;;;;;;6.73;100.00;99906.06;5092712;28;20035;-80
2022/12/05 07:51:07;;;;;;;18.25;6.10;;;;;;;6.61;100.00;99907.25;5071155;28;20082;-77
2022/12/05 07:53:33;;;;;;;12.40;6.18;;;;;;;6.62;100.00;99914.13;5073524;28;20054;-78
2022/12/05 07:56:00;;;;;;;11.98;6.75;;;;;;;6.74;100.00;99915.53;5092912;28;20157;-78
2022/12/05 07:58:37;;;;;;;13.50;6.43;;;;;;;6.79;100.00;99917.72;5092765;28;20032;-79
2022/12/05 08:01:11;;;;;;;19.50;5.90;;;;;;;6.86;100.00;99918.75;5094832;28;20115;-79
2022/12/05 08:03:39;;;;;;;16.17;6.22;;;;;;;6.83;100.00;99916.44;5075089;28;20432;-82
2022/12/05 08:06:17;;;;;;;20.08;6.35;;;;;;;6.98;100.00;99924.59;5093320;28;20042;-82
2022/12/05 08:08:44;;;;;;;13.13;5.88;;;;;;;6.95;100.00;99930.91;5092031;28;20039;-80
2022/12/05 08:11:14;;;;;;;19.60;6.07;;;;;;;6.95;100.00;99928.31;5093334;28;20032;-81
2022/12/05 08:13:40;;;;;;;10.73;5.75;;;;;;;6.81;100.00;99927.03;5093166;28;20070;-79
2022/12/05 08:16:10;;;;;;;16.58;6.13;;;;;;;6.68;100.00;99934.41;5094327;28;20078;-83
2022/12/05 08:18:37;;;;;;;14.38;6.25;;;;;;;6.85;100.00;99931.00;5093708;28;20032;-81
2022/12/05 08:21:11;;;;;;;13.63;6.10;;;;;;;6.65;100.00;99930.28;5089769;28;20036;-81
2022/12/05 08:23:39;;;;;;;14.73;6.03;;;;;;;6.95;100.00;99945.75;5091668;28;20141;-80
2022/12/05 08:26:08;;;;;;;17.27;5.85;;;;;;;6.88;100.00;99945.53;5073940;28;20093;-81
2022/12/05 08:28:35;;;;;;;23.50;6.35;;;;;;;6.75;100.00;99947.69;5057339;28;20097;-82
2022/12/05 08:31:10;;;;;;;22.88;6.95;;;;;;;6.97;100.00;99949.84;5057323;28;20032;-81
2022/12/05 08:33:36;;;;;;;19.75;6.63;;;;;;;6.97;100.00;99949.84;5056658;28;20039;-80
2022/12/05 08:36:04;;;;;;;14.38;6.20;;;;;;;7.12;100.00;99957.19;5092275;28;20032;-81
2022/12/05 08:38:31;;;;;;;20.60;6.30;;;;;;;6.98;100.00;99963.75;5074711;28;20028;-84
2022/12/05 08:41:00;;;;;;;16.10;5.75;;;;;;;7.08;100.00;99961.06;5074796;28;20711;-83
2022/12/05 08:43:25;;;;;;;21.83;6.43;;;;;;;7.04;100.00;99964.91;5075337;28;20053;-83
2022/12/05 08:45:52;;;;;;;16.55;6.05;;;;;;;6.92;100.00;99962.53;5093482;28;20457;-82
2022/12/05 08:48:18;;;;;;;18.20;6.53;;;;;;;6.98;100.00;99972.38;5093838;28;20036;-84
2022/12/05 08:50:45;;;;;;;16.92;6.97;;;;;;;7.06;100.00;99970.81;5076640;28;20035;-86
2022/12/05 08:53:11;;;;;;;19.38;7.10;;;;;;;7.05;100.00;99966.56;5077375;28;20042;-87
2022/12/05 08:55:37;;;;;;;18.90;7.03;;;;;;;7.13;100.00;99970.06;5095100;28;20040;-86
2022/12/05 08:58:02;;;;;;;19.15;7.22;;;;;;;7.10;100.00;99969.56;5060246;28;20067;-83
2022/12/05 09:00:28;;;;;;;13.20;6.07;;;;;;;7.24;100.00;99969.03;5091886;28;20067;-85
2022/12/05 09:02:54;;;;;;;15.25;6.47;;;;;;;7.02;100.00;99969.47;5091695;28;20051;-84
2022/12/05 09:05:21;;;;;;;19.55;8.63;;;;;;;7.15;100.00;99967.31;5073552;28;20035;-86
2022/12/05 09:07:46;;;;;;;17.63;6.45;;;;;;;7.23;100.00;99975.22;5092115;28;20036;-85
2022/12/05 09:10:12;;;;;;;22.60;8.55;;;;;;;7.32;100.00;99980.53;5091283;28;20393;-87
2022/12/05 09:12:38;;;;;;;23.02;6.72;;;;;;;7.16;100.00;99984.63;5056371;28;20028;-87
2022/12/05 09:15:06;;;;;;;17.40;6.82;;;;;;;7.17;100.00;99986.28;5073998;28;20039;-85
2022/12/05 09:17:32;;;;;;;12.60;7.47;;;;;;;7.44;100.00;99987.16;5093371;28;20063;-86
2022/12/05 09:19:58;;;;;;;15.45;6.30;;;;;;;7.41;100.00;99988.28;5093445;28;20063;-86
2022/12/05 09:22:24;;;;;;;20.60;7.00;;;;;;;7.27;100.00;99989.63;5093848;28;20085;-86
2022/12/05 09:24:50;;;;;;;15.85;5.97;;;;;;;7.41;100.00;99982.22;5091558;28;20036;-86
2022/12/05 09:27:15;;;;;;;17.15;6.85;;;;;;;7.46;100.00;100003.50;5092977;28;20032;-85
2022/12/05 09:29:42;;;;;;;20.55;6.05;;;;;;;7.44;100.00;99997.59;5094006;28;20031;-87
2022/12/05 09:32:08;;;;;;;12.93;6.25;;;;;;;7.54;100.00;99995.75;5093809;28;20123;-86
2022/12/05 09:34:35;;;;;;;15.73;6.10;;;;;;;7.48;100.00;100001.56;5090431;28;20132;-86
2022/12/05 09:37:02;;;;;;;17.13;7.13;;;;;;;7.36;100.00;100005.38;5074623;28;20028;-86
2022/12/05 09:39:27;;;;;;;14.13;6.68;;;;;;;7.64;100.00;100002.66;5074750;28;20061;-86
2022/12/05 09:42:08;;;;;;;15.82;6.53;;;;;;;7.63;100.00;100001.00;5072494;28;20040;-87
2022/12/05 09:45:17;;;;;;;17.27;7.10;;;;;;;7.62;100.00;99999.38;5075721;28;20024;-85
2022/12/05 09:47:51;;;;;;;15.93;7.55;;;;;;;7.78;100.00;100009.16;5056621;28;20056;-86
2022/12/05 09:50:56;;;;;;;23.60;7.25;;;;;;;7.94;100.00;100011.06;5090740;28;20028;-84
2022/12/05 09:53:31;;;;;;;19.38;6.93;;;;;;;7.95;100.00;100003.03;5070698;28;20371;-84
2022/12/05 09:56:12;;;;;;;12.00;6.00;;;;;;;7.84;100.00;100011.16;5084367;28;20032;-85
2022/12/05 09:58:40;;;;;;;16.90;7.30;;;;;;;7.52;100.00;100010.75;5056547;28;20074;-85
2022/12/05 10:01:08;;;;;;;14.15;5.97;;;;;;;7.49;100.00;100010.22;5044665;28;20047;-84
2022/12/05 10:03:44;;;;;;;12.82;6.05;;;;;;;7.50;100.00;100020.53;5046322;28;20024;-84
2022/12/05 10:06:34;;;;;;;16.30;5.40;;;;;;;7.40;100.00;100011.94;5049169;28;20028;-83
2022/12/05 10:09:00;;;;;;;17.92;6.05;;;;;;;7.63;100.00;100019.31;5063514;28;20032;-84
2022/12/05 10:11:36;;;;;;;13.65;6.50;;;;;;;7.67;100.00;100010.22;5029050;28;20024;-81
2022/12/05 10:14:16;;;;;;;13.02;5.65;;;;;;;7.61;100.00;100021.25;5063068;28;20094;-82
2022/12/05 10:16:58;;;;;;;18.40;6.60;;;;;;;7.47;100.00;100013.00;5059580;28;20039;-82
2022/12/05 10:19:37;;;;;;;14.15;6.35;;;;;;;7.48;100.00;100009.41;5040853;28;20350;-82
2022/12/05 10:22:30;;;;;;;19.23;6.55;;;;;;;7.56;100.00;100014.69;5059547;28;20121;-82
2022/12/05 10:25:02;;;;;;;17.30;6.15;;;;;;;7.71;100.00;100008.94;5059946;28;20039;-82
2022/12/05 10:27:44;;;;;;;18.95;6.78;;;;;;;7.58;100.00;100019.78;5089430;28;20031;-81
2022/12/05 10:30:14;;;;;;;12.95;6.88;;;;;;;7.76;100.00;100024.97;5072824;28;20020;-82
2022/12/05 10:32:44;;;;;;;14.52;6.80;;;;;;;7.97;100.00;100015.97;5072131;28;20028;-82
2022/12/05 10:35:19;;;;;;;16.45;6.93;;;;;;;7.72;100.00;100015.81;5089517;28;20031;-81
2022/12/05 10:37:48;;;;;;;9.18;5.55;;;;;;;7.64;100.00;100007.88;5090187;28;20064;-84
2022/12/05 10:40:14;;;;;;;13.80;6.63;;;;;;;7.58;100.00;100015.34;5072520;28;20071;-81
2022/12/05 10:42:41;;;;;;;14.70;6.18;;;;;;;7.51;100.00;100005.66;5091556;28;20036;-81
2022/12/05 10:45:15;;;;;;;20.33;6.38;;;;;;;7.63;100.00;100014.09;5089626;28;20118;-80
2022/12/05 10:47:41;;;;;;;13.80;5.88;;;;;;;7.58;100.00;100020.59;5089302;28;20032;-82
2022/12/05 10:50:20;;;;;;;19.40;6.82;;;;;;;7.70;100.00;100013.31;5089433;28;20032;-83
2022/12/05 10:52:46;;;;;;;23.02;6.45;;;;;;;7.78;100.00;100009.16;5070329;28;20024;-84
2022/12/05 10:55:15;;;;;;;26.40;7.20;;;;;;;7.90;100.00;100007.91;5090623;28;20023;-83
2022/12/05 10:57:41;;;;;;;16.52;6.72;;;;;;;8.15;100.00;100011.50;5076211;28;20382;-84
2022/12/05 11:00:12;;;;;;;14.25;6.00;;;;;;;8.10;100.00;100021.63;5092603;28;20422;-82
2022/12/05 11:02:40;;;;;;;13.18;6.60;;;;;;;7.89;100.00;100008.09;5092417;28;20094;-87
2022/12/05 11:05:06;;;;;;;13.98;6.97;;;;;;;7.85;100.00;100015.41;5042065;28;20054;-83
2022/12/05 11:07:35;;;;;;;13.68;6.72;;;;;;;7.79;100.00;100005.56;5058461;28;20032;-82
2022/12/05 11:10:18;;;;;;;19.55;6.60;;;;;;;7.88;100.00;100009.06;5075662;28;20043;-82
2022/12/05 11:12:44;;;;;;;15.27;6.53;;;;;;;8.08;100.00;100005.28;5076596;28;20039;-83
2022/12/05 11:15:18;;;;;;;14.05;6.70;;;;;;;8.10;100.00;100013.78;5093766;28;20477;-83
2022/12/05 11:17:45;;;;;;;23.08;7.47;;;;;;;8.05;100.00;100007.38;5093246;28;20516;-83
2022/12/05 11:20:17;;;;;;;19.80;6.55;;;;;;;8.06;100.00;100009.84;5075235;28;20024;-82
2022/12/05 11:22:44;;;;;;;17.02;7.10;;;;;;;8.26;100.00;100020.91;5074856;28;20093;-82
2022/12/05 11:25:39;;;;;;;24.13;6.97;;;;;;;8.13;100.00;100012.63;5056050;28;20039;-83
2022/12/05 11:28:32;;;;;;;15.68;6.35;;;;;;;8.25;100.00;100015.81;5096578;27;20059;-84
2022/12/05 11:31:18;;;;;;;21.48;6.55;;;;;;;8.36;100.00;100018.16;5074531;28;20024;-84
2022/12/05 11:34:00;;;;;;;17.20;6.85;;;;;;;8.32;100.00;100022.06;5078227;28;20110;-83
2022/12/05 11:36:42;;;;;;;17.42;6.88;;;;;;;8.19;100.00;100017.25;5076850;28;20115;-85
2022/12/05 11:39:12;;;;;;;19.80;8.27;;;;;;;8.21;100.00;100023.16;5092862;28;20034;-87
2022/12/05 11:42:19;;;;;;;15.40;6.45;;;;;;;8.16;100.00;100028.03;5078081;28;20036;-84